createdAt,value
2019-05-23T00:00:27.008Z,86.85
2019-05-23T00:02:54.695Z,86.71
2019-05-23T00:05:26.229Z,87.32
2019-05-23T00:07:54.575Z,87.39
2019-05-23T00:10:29.485Z,87.39
2019-05-23T00:12:59.673Z,87.55
2019-05-23T00:15:34.503Z,87.55
2019-05-23T00:18:03.843Z,87.22
2019-05-23T00:20:32.548Z,87.67
2019-05-23T00:23:01.013Z,87.25
2019-05-23T00:25:28.530Z,86.45
2019-05-23T00:27:56.755Z,86.61
2019-05-23T00:30:26.895Z,87.27
2019-05-23T00:32:59.788Z,87.04
2019-05-23T00:35:27.647Z,86.74
2019-05-23T00:37:55.059Z,87.02
2019-05-23T00:40:22.653Z,87.07
2019-05-23T00:42:50.056Z,87.07
2019-05-23T00:45:18.102Z,87.04
2019-05-23T00:47:46.230Z,87.25
2019-05-23T00:50:19.180Z,87.32
2019-05-23T00:52:49.722Z,87.20
2019-05-23T00:55:17.679Z,87.72
2019-05-23T00:57:45.307Z,87.44
2019-05-23T01:00:19.052Z,87.43
2019-05-23T01:02:47.478Z,87.26
2019-05-23T01:05:16.193Z,87.47
2019-05-23T01:07:44.722Z,87.21
2019-05-23T01:10:14.939Z,86.87
2019-05-23T01:12:43.907Z,86.87
2019-05-23T01:15:12.629Z,86.97
2019-05-23T01:17:40.543Z,87.14
2019-05-23T01:20:11.470Z,86.92
2019-05-23T01:22:39.157Z,86.75
2019-05-23T01:25:08.469Z,86.68
2019-05-23T01:27:36.940Z,85.91
2019-05-23T01:30:11.573Z,86.58
2019-05-23T01:32:42.365Z,86.64
2019-05-23T01:35:10.747Z,86.64
2019-05-23T01:37:37.872Z,86.61
2019-05-23T01:40:06.543Z,86.61
2019-05-23T01:42:34.588Z,86.62
2019-05-23T01:45:02.638Z,86.75
2019-05-23T01:47:30.454Z,86.79
2019-05-23T01:49:58.897Z,86.65
2019-05-23T01:52:27.084Z,86.76
2019-05-23T01:54:54.107Z,86.60
2019-05-23T01:57:23.535Z,86.67
2019-05-23T02:00:06.171Z,86.69
2019-05-23T02:02:22.492Z,86.12
2019-05-23T02:04:50.236Z,86.52
2019-05-23T02:07:17.658Z,86.44
2019-05-23T02:09:45.814Z,86.74
2019-05-23T02:12:15.091Z,86.57
2019-05-23T02:14:43.683Z,86.83
2019-05-23T02:17:13.138Z,86.91
2019-05-23T02:19:40.607Z,86.72
2019-05-23T02:22:08.978Z,86.31
2019-05-23T02:24:36.393Z,86.31
2019-05-23T02:27:05.043Z,86.33
2019-05-23T02:29:33.271Z,86.36
2019-05-23T02:32:02.974Z,86.37
2019-05-23T02:34:29.978Z,86.37
2019-05-23T02:36:58.331Z,86.22
2019-05-23T02:39:39.812Z,86.08
2019-05-23T02:42:24.716Z,86.24
2019-05-23T02:44:52.463Z,86.28
2019-05-23T02:47:32.693Z,86.38
2019-05-23T02:50:02.032Z,86.64
2019-05-23T02:52:38.610Z,86.54
2019-05-23T02:55:24.859Z,86.06
2019-05-23T02:57:58.617Z,86.39
2019-05-23T03:00:54.374Z,86.58
2019-05-23T03:03:24.031Z,86.58
2019-05-23T03:05:51.767Z,86.37
2019-05-23T03:08:21.904Z,86.42
2019-05-23T03:11:01.597Z,86.40
2019-05-23T03:13:29.644Z,86.18
2019-05-23T03:15:57.541Z,86.18
2019-05-23T03:18:26.608Z,86.50
2019-05-23T03:20:55.316Z,86.34
2019-05-23T03:23:23.097Z,86.58
2019-05-23T03:26:04.943Z,86.35
2019-05-23T03:28:38.615Z,87.02
2019-05-23T03:31:29.987Z,87.02
2019-05-23T03:33:49.655Z,87.11
2019-05-23T03:36:19.298Z,87.11
2019-05-23T03:38:47.085Z,87.27
2019-05-23T03:41:14.301Z,87.32
2019-05-23T03:43:42.021Z,87.04
2019-05-23T03:46:23.485Z,86.97
2019-05-23T03:48:52.582Z,86.97
2019-05-23T03:51:21.012Z,86.10
2019-05-23T03:53:51.278Z,86.10
2019-05-23T03:56:19.093Z,87.49
2019-05-23T03:58:47.357Z,87.49
2019-05-23T04:01:17.609Z,87.09
2019-05-23T04:03:44.656Z,86.74
2019-05-23T04:06:12.399Z,86.95
2019-05-23T04:08:40.982Z,87.07
2019-05-23T04:11:08.614Z,87.07
2019-05-23T04:13:35.755Z,87.15
2019-05-23T04:16:04.448Z,86.86
2019-05-23T04:18:32.156Z,87.02
2019-05-23T04:20:59.425Z,87.14
2019-05-23T04:23:26.629Z,86.88
2019-05-23T04:25:54.078Z,86.39
2019-05-23T04:28:21.396Z,86.47
2019-05-23T04:30:48.578Z,86.00
2019-05-23T04:33:16.383Z,86.00
2019-05-23T04:35:43.940Z,86.35
2019-05-23T04:38:11.045Z,86.27
2019-05-23T04:40:38.625Z,86.56
2019-05-23T04:43:05.972Z,85.90
2019-05-23T04:45:33.935Z,85.99
2019-05-23T04:48:01.178Z,86.10
2019-05-23T04:50:29.106Z,86.01
2019-05-23T04:52:56.753Z,86.10
2019-05-23T04:55:24.010Z,86.26
2019-05-23T04:57:51.656Z,86.15
2019-05-23T05:00:20.879Z,86.34
2019-05-23T05:02:48.005Z,86.34
2019-05-23T05:05:15.707Z,86.52
2019-05-23T05:07:43.574Z,86.57
2019-05-23T05:10:16.746Z,86.57
2019-05-23T05:12:44.341Z,86.68
2019-05-23T05:15:12.741Z,86.72
2019-05-23T05:17:40.695Z,86.53
2019-05-23T05:20:08.955Z,86.15
2019-05-23T05:22:36.569Z,86.06
2019-05-23T05:25:05.092Z,86.21
2019-05-23T05:27:32.277Z,85.96
2019-05-23T05:29:59.908Z,86.15
2019-05-23T05:32:43.274Z,85.95
2019-05-23T05:34:58.435Z,86.08
2019-05-23T05:37:25.623Z,86.17
2019-05-23T05:39:53.838Z,85.45
2019-05-23T05:42:22.156Z,86.16
2019-05-23T05:44:50.855Z,86.09
2019-05-23T05:47:19.768Z,86.58
2019-05-23T05:49:46.952Z,86.67
2019-05-23T05:52:14.684Z,86.87
2019-05-23T05:54:42.428Z,86.87
2019-05-23T05:57:10.265Z,87.24
2019-05-23T05:59:38.235Z,86.70
2019-05-23T06:02:07.909Z,86.96
2019-05-23T06:04:38.684Z,87.56
2019-05-23T06:07:10.663Z,87.29
2019-05-23T06:09:38.559Z,87.19
2019-05-23T06:12:06.031Z,86.65
2019-05-23T06:14:33.230Z,86.52
2019-05-23T06:17:04.575Z,86.44
2019-05-23T06:19:32.423Z,85.83
2019-05-23T06:21:59.625Z,86.29
2019-05-23T06:24:42.211Z,86.08
2019-05-23T06:26:57.399Z,86.63
2019-05-23T06:29:25.117Z,86.26
2019-05-23T06:31:53.310Z,86.72
2019-05-23T06:34:20.813Z,86.32
2019-05-23T06:36:47.952Z,85.76
2019-05-23T06:39:16.952Z,85.49
2019-05-23T06:41:44.309Z,85.16
2019-05-23T06:44:12.117Z,85.28
2019-05-23T06:46:39.715Z,85.44
2019-05-23T06:49:06.817Z,85.32
2019-05-23T06:51:33.957Z,85.76
2019-05-23T06:54:00.999Z,85.25
2019-05-23T06:56:28.151Z,85.53
2019-05-23T06:58:55.879Z,85.64
2019-05-23T07:01:22.903Z,85.42
2019-05-23T07:03:50.323Z,85.58
2019-05-23T07:06:20.991Z,85.87
2019-05-23T07:08:48.107Z,85.78
2019-05-23T07:11:18.909Z,85.55
2019-05-23T07:13:46.906Z,85.34
2019-05-23T07:16:14.055Z,85.58
2019-05-23T07:18:42.085Z,85.34
2019-05-23T07:21:10.289Z,85.45
2019-05-23T07:23:37.748Z,85.41
2019-05-23T07:26:05.174Z,85.63
2019-05-23T07:28:33.716Z,85.55
2019-05-23T07:31:01.231Z,85.46
2019-05-23T07:33:28.322Z,85.52
2019-05-23T07:35:55.695Z,85.36
2019-05-23T07:38:23.224Z,85.52
2019-05-23T07:40:51.029Z,85.76
2019-05-23T07:43:20.023Z,85.76
2019-05-23T07:45:57.344Z,86.16
2019-05-23T07:48:25.917Z,85.83
2019-05-23T07:50:53.145Z,85.74
2019-05-23T07:53:32.995Z,85.81
2019-05-23T07:56:02.167Z,85.62
2019-05-23T07:58:29.390Z,86.09
2019-05-23T08:01:01.828Z,85.74
2019-05-23T08:03:32.537Z,85.99
2019-05-23T08:06:00.026Z,86.28
2019-05-23T08:08:27.401Z,85.94
2019-05-23T08:10:54.872Z,85.89
2019-05-23T08:13:22.432Z,85.85
2019-05-23T08:15:50.060Z,85.89
2019-05-23T08:18:17.559Z,86.33
2019-05-23T08:20:44.960Z,85.90
2019-05-23T08:23:13.295Z,85.99
2019-05-23T08:25:40.518Z,86.01
2019-05-23T08:28:08.095Z,86.21
2019-05-23T08:30:36.178Z,86.02
2019-05-23T08:33:04.608Z,86.08
2019-05-23T08:35:32.226Z,86.52
2019-05-23T08:37:59.664Z,86.60
2019-05-23T08:40:28.838Z,86.74
2019-05-23T08:42:56.245Z,86.98
2019-05-23T08:45:23.691Z,86.58
2019-05-23T08:47:51.097Z,86.47
2019-05-23T08:50:19.981Z,86.15
2019-05-23T08:52:47.421Z,86.07
2019-05-23T08:55:18.960Z,85.84
2019-05-23T08:57:46.154Z,85.98
2019-05-23T09:00:14.575Z,85.66
2019-05-23T09:02:43.421Z,85.61
2019-05-23T09:05:10.673Z,85.81
2019-05-23T09:07:37.827Z,86.01
2019-05-23T09:10:05.505Z,86.12
2019-05-23T09:12:33.684Z,86.51
2019-05-23T09:15:00.888Z,86.16
2019-05-23T09:17:28.419Z,85.61
2019-05-23T09:19:55.475Z,85.69
2019-05-23T09:22:22.667Z,85.25
2019-05-23T09:24:50.352Z,84.94
2019-05-23T09:27:17.460Z,84.83
2019-05-23T09:29:44.718Z,84.69
2019-05-23T09:32:12.473Z,84.66
2019-05-23T09:34:40.093Z,85.02
2019-05-23T09:37:08.910Z,84.74
2019-05-23T09:39:36.215Z,84.91
2019-05-23T09:42:03.945Z,85.18
2019-05-23T09:44:31.267Z,85.23
2019-05-23T09:46:58.650Z,85.30
2019-05-23T09:49:25.936Z,86.16
2019-05-23T09:51:57.149Z,85.27
2019-05-23T09:54:24.307Z,84.69
2019-05-23T09:56:52.345Z,84.58
2019-05-23T09:59:19.347Z,84.04
2019-05-23T10:01:49.124Z,84.48
2019-05-23T10:04:16.446Z,84.68
2019-05-23T10:06:46.123Z,85.30
2019-05-23T10:09:12.971Z,85.40
2019-05-23T10:11:40.386Z,86.10
2019-05-23T10:14:09.779Z,85.89
2019-05-23T10:16:37.259Z,85.41
2019-05-23T10:19:04.597Z,84.99
2019-05-23T10:21:31.647Z,84.74
2019-05-23T10:23:59.124Z,84.31
2019-05-23T10:26:26.523Z,84.52
2019-05-23T10:28:53.792Z,84.51
2019-05-23T10:31:21.177Z,84.26
2019-05-23T10:33:48.233Z,84.91
2019-05-23T10:36:15.736Z,84.59
2019-05-23T10:38:43.763Z,84.85
2019-05-23T10:41:11.017Z,84.78
2019-05-23T10:43:38.208Z,84.75
2019-05-23T10:46:05.555Z,84.55
2019-05-23T10:48:32.896Z,84.64
2019-05-23T10:51:00.190Z,85.04
2019-05-23T10:53:27.418Z,85.18
2019-05-23T10:55:54.861Z,85.34
2019-05-23T10:58:22.050Z,85.40
2019-05-23T11:00:50.334Z,85.53
2019-05-23T11:03:17.673Z,85.00
2019-05-23T11:05:45.192Z,84.73
2019-05-23T11:08:12.330Z,84.15
2019-05-23T11:10:40.060Z,84.42
2019-05-23T11:13:07.475Z,85.20
2019-05-23T11:15:35.070Z,84.55
2019-05-23T11:18:02.651Z,84.90
2019-05-23T11:20:30.316Z,84.83
2019-05-23T11:22:58.478Z,84.71
2019-05-23T11:25:27.662Z,84.76
2019-05-23T11:27:55.821Z,85.14
2019-05-23T11:30:31.363Z,85.47
2019-05-23T11:32:58.638Z,85.31
2019-05-23T11:35:26.395Z,84.49
2019-05-23T11:37:53.619Z,84.20
2019-05-23T11:40:20.667Z,84.51
2019-05-23T11:42:47.938Z,84.18
2019-05-23T11:45:15.980Z,83.77
2019-05-23T11:47:43.380Z,84.05
2019-05-23T11:50:11.119Z,84.62
2019-05-23T11:52:38.859Z,84.58
2019-05-23T11:55:07.791Z,84.66
2019-05-23T11:57:37.784Z,84.02
2019-05-23T12:00:13.130Z,84.14
2019-05-23T12:02:45.215Z,84.54
2019-05-23T12:05:14.760Z,83.89
2019-05-23T12:07:41.908Z,84.06
2019-05-23T12:10:10.053Z,84.16
2019-05-23T12:12:37.123Z,83.97
2019-05-23T12:15:10.529Z,84.49
2019-05-23T12:17:39.284Z,84.46
2019-05-23T12:20:08.080Z,84.19
2019-05-23T12:22:35.441Z,84.35
2019-05-23T12:25:21.257Z,84.75
2019-05-23T12:27:35.653Z,84.46
2019-05-23T12:30:06.685Z,85.19
2019-05-23T12:32:34.337Z,84.50
2019-05-23T12:35:11.324Z,84.41
2019-05-23T12:37:34.890Z,85.13
2019-05-23T12:40:08.433Z,85.64
2019-05-23T12:42:35.491Z,85.64
2019-05-23T12:45:06.387Z,85.40
2019-05-23T12:47:35.426Z,85.34
2019-05-23T12:50:07.650Z,85.10
2019-05-23T12:52:34.479Z,84.21
2019-05-23T12:55:03.062Z,84.21
2019-05-23T12:57:30.227Z,84.98
2019-05-23T12:59:57.863Z,84.77
2019-05-23T13:02:27.224Z,84.77
2019-05-23T13:04:54.494Z,84.79
2019-05-23T13:07:35.553Z,85.20
2019-05-23T13:09:51.411Z,85.30
2019-05-23T13:12:18.951Z,85.02
2019-05-23T13:14:46.060Z,85.27
2019-05-23T13:17:13.082Z,85.47
2019-05-23T13:19:40.837Z,85.33
2019-05-23T13:22:08.908Z,85.33
2019-05-23T13:24:51.278Z,85.71
2019-05-23T13:27:05.376Z,85.31
2019-05-23T13:29:33.540Z,85.31
2019-05-23T13:32:00.892Z,85.16
2019-05-23T13:34:28.310Z,85.43
2019-05-23T13:36:55.275Z,85.72
2019-05-23T13:39:22.429Z,85.45
2019-05-23T13:41:49.527Z,85.45
2019-05-23T13:44:32.651Z,85.78
2019-05-23T13:46:47.164Z,85.97
2019-05-23T13:49:15.973Z,86.00
2019-05-23T13:51:43.125Z,86.16
2019-05-23T13:54:10.444Z,86.19
2019-05-23T13:56:37.636Z,86.19
2019-05-23T13:59:04.719Z,86.12
2019-05-23T14:01:32.298Z,85.66
2019-05-23T14:04:00.119Z,85.62
2019-05-23T14:06:27.582Z,85.62
2019-05-23T14:08:55.515Z,85.75
2019-05-23T14:11:22.739Z,86.39
2019-05-23T14:13:59.198Z,86.39
2019-05-23T14:16:19.766Z,85.82
2019-05-23T14:18:47.316Z,85.93
2019-05-23T14:21:14.540Z,85.65
2019-05-23T14:23:42.148Z,85.43
2019-05-23T14:26:11.095Z,85.43
2019-05-23T14:28:38.338Z,85.58
2019-05-23T14:31:10.759Z,85.58
2019-05-23T14:33:41.324Z,85.59
2019-05-23T14:36:10.550Z,85.75
2019-05-23T14:38:37.630Z,86.37
2019-05-23T14:41:05.779Z,85.95
2019-05-23T14:43:33.079Z,85.78
2019-05-23T14:46:02.417Z,85.84
2019-05-23T14:48:48.586Z,86.07
2019-05-23T14:51:33.919Z,86.07
2019-05-23T14:54:06.993Z,86.36
2019-05-23T14:56:35.830Z,86.36
2019-05-23T14:59:03.812Z,86.77
2019-05-23T15:01:32.905Z,86.59
2019-05-23T15:04:00.058Z,86.60
2019-05-23T15:06:27.480Z,86.59
2019-05-23T15:08:54.707Z,86.80
2019-05-23T15:11:21.724Z,86.80
2019-05-23T15:13:49.510Z,86.60
2019-05-23T15:16:16.877Z,86.60
2019-05-23T15:18:44.045Z,86.52
2019-05-23T15:21:11.545Z,86.48
2019-05-23T15:23:38.900Z,86.18
2019-05-23T15:26:21.566Z,86.15
2019-05-23T15:28:35.388Z,86.12
2019-05-23T15:31:03.232Z,85.98
2019-05-23T15:33:30.845Z,86.33
2019-05-23T15:35:58.679Z,86.33
2019-05-23T15:38:26.432Z,86.05
2019-05-23T15:40:53.437Z,86.28
2019-05-23T15:43:20.515Z,86.25
2019-05-23T15:45:47.668Z,86.25
2019-05-23T15:48:14.578Z,86.48
2019-05-23T15:50:52.101Z,86.58
2019-05-23T15:53:40.315Z,86.61
2019-05-23T15:56:27.007Z,86.60
2019-05-23T15:58:41.010Z,86.72
2019-05-23T16:01:22.356Z,86.64
2019-05-23T16:03:54.524Z,86.64
2019-05-23T16:06:26.510Z,87.00
2019-05-23T16:08:54.096Z,86.74
2019-05-23T16:11:21.563Z,87.07
2019-05-23T16:13:48.789Z,86.82
2019-05-23T16:16:16.101Z,86.86
2019-05-23T16:18:43.919Z,86.85
2019-05-23T16:21:11.593Z,86.72
2019-05-23T16:23:38.931Z,86.70
2019-05-23T16:26:05.976Z,87.04
2019-05-23T16:28:33.104Z,87.04
2019-05-23T16:31:00.321Z,87.21
2019-05-23T16:33:27.325Z,87.12
2019-05-23T16:35:54.858Z,87.16
2019-05-23T16:38:22.320Z,87.32
2019-05-23T16:40:49.219Z,87.17
2019-05-23T16:43:16.978Z,86.92
2019-05-23T16:45:44.497Z,86.91
2019-05-23T16:48:11.847Z,86.91
2019-05-23T16:50:39.111Z,87.30
2019-05-23T16:53:06.524Z,87.41
2019-05-23T16:55:33.417Z,87.31
2019-05-23T16:58:05.018Z,87.56
2019-05-23T17:00:40.055Z,87.43
2019-05-23T17:03:07.500Z,87.54
2019-05-23T17:05:36.626Z,87.33
2019-05-23T17:08:13.221Z,87.28
2019-05-23T17:10:42.385Z,88.06
2019-05-23T17:13:13.911Z,87.63
2019-05-23T17:15:43.102Z,87.60
2019-05-23T17:18:28.769Z,87.60
2019-05-23T17:21:00.199Z,87.35
2019-05-23T17:23:46.206Z,87.31
2019-05-23T17:26:27.272Z,87.31
2019-05-23T17:28:57.198Z,86.77
2019-05-23T17:31:26.613Z,86.43
2019-05-23T17:33:53.643Z,86.52
2019-05-23T17:36:20.960Z,86.59
2019-05-23T17:38:48.403Z,87.19
2019-05-23T17:41:15.684Z,87.17
2019-05-23T17:43:42.952Z,86.96
2019-05-23T17:46:10.107Z,87.57
2019-05-23T17:48:37.312Z,87.80
2019-05-23T17:51:04.459Z,87.68
2019-05-23T17:53:31.675Z,87.73
2019-05-23T17:55:58.862Z,87.69
2019-05-23T17:58:26.122Z,87.36
2019-05-23T18:00:53.942Z,87.25
2019-05-23T18:03:21.769Z,87.65
2019-05-23T18:05:50.484Z,87.29
2019-05-23T18:08:18.873Z,87.43
2019-05-23T18:10:47.401Z,87.93
2019-05-23T18:13:15.537Z,87.98
2019-05-23T18:15:43.938Z,88.13
2019-05-23T18:18:11.798Z,88.13
2019-05-23T18:20:40.162Z,88.22
2019-05-23T18:23:09.364Z,88.21
2019-05-23T18:25:37.541Z,88.13
2019-05-23T18:28:06.889Z,88.38
2019-05-23T18:30:55.202Z,88.42
2019-05-23T18:33:24.529Z,88.30
2019-05-23T18:35:53.021Z,88.50
2019-05-23T18:38:22.045Z,88.54
2019-05-23T18:41:02.878Z,88.62
2019-05-23T18:43:20.895Z,88.59
2019-05-23T18:45:51.119Z,88.64
2019-05-23T18:48:19.193Z,88.66
2019-05-23T18:50:48.293Z,88.65
2019-05-23T18:53:16.625Z,88.91
2019-05-23T18:55:44.748Z,88.70
2019-05-23T18:58:13.031Z,88.86
2019-05-23T19:01:04.758Z,88.87
2019-05-23T19:03:33.034Z,89.00
2019-05-23T19:06:01.725Z,88.92
2019-05-23T19:08:30.105Z,88.98
2019-05-23T19:10:58.696Z,88.89
2019-05-23T19:13:26.818Z,88.69
2019-05-23T19:15:54.929Z,88.92
2019-05-23T19:18:24.819Z,88.75
2019-05-23T19:20:54.754Z,88.73
2019-05-23T19:23:24.254Z,88.67
2019-05-23T19:25:52.260Z,88.86
2019-05-23T19:28:20.541Z,88.97
2019-05-23T19:30:48.522Z,89.33
2019-05-23T19:33:16.325Z,89.32
2019-05-23T19:35:47.408Z,89.11
2019-05-23T19:38:14.170Z,88.71
2019-05-23T19:40:41.809Z,88.41
2019-05-23T19:43:10.009Z,88.08
2019-05-23T19:45:37.105Z,87.92
2019-05-23T19:48:04.593Z,88.16
2019-05-23T19:50:32.400Z,88.01
2019-05-23T19:52:59.547Z,88.17
2019-05-23T19:55:27.473Z,88.28
2019-05-23T19:57:56.122Z,88.21
2019-05-23T20:00:25.205Z,88.01
2019-05-23T20:02:56.927Z,88.30
2019-05-23T20:05:38.093Z,88.24
2019-05-23T20:08:05.897Z,88.08
2019-05-23T20:10:33.844Z,88.48
2019-05-23T20:13:01.277Z,88.53
2019-05-23T20:15:30.049Z,88.79
2019-05-23T20:17:57.666Z,88.74
2019-05-23T20:20:25.072Z,89.01
2019-05-23T20:22:52.456Z,88.81
2019-05-23T20:25:20.122Z,88.83
2019-05-23T20:27:47.544Z,88.95
2019-05-23T20:30:38.859Z,89.05
2019-05-23T20:33:06.266Z,88.96
2019-05-23T20:35:34.021Z,89.22
2019-05-23T20:38:01.407Z,89.13
2019-05-23T20:40:29.411Z,89.08
2019-05-23T20:42:56.865Z,89.14
2019-05-23T20:45:24.098Z,89.07
2019-05-23T20:47:51.348Z,89.17
2019-05-23T20:50:18.496Z,89.47
2019-05-23T20:52:45.408Z,89.47
2019-05-23T20:55:12.912Z,89.30
2019-05-23T20:57:39.964Z,89.31
2019-05-23T21:00:09.333Z,89.47
2019-05-23T21:02:36.423Z,89.47
2019-05-23T21:05:06.368Z,89.51
2019-05-23T21:07:33.169Z,89.41
2019-05-23T21:10:00.272Z,89.52
2019-05-23T21:12:30.363Z,89.65
2019-05-23T21:14:57.007Z,89.57
2019-05-23T21:17:25.488Z,89.63
2019-05-23T21:19:52.364Z,89.69
2019-05-23T21:22:19.523Z,89.55
2019-05-23T21:24:46.411Z,89.60
2019-05-23T21:27:13.749Z,89.57
2019-05-23T21:29:40.738Z,89.62
2019-05-23T21:32:08.123Z,89.20
2019-05-23T21:34:35.543Z,89.22
2019-05-23T21:37:03.022Z,89.45
2019-05-23T21:39:30.067Z,89.48
2019-05-23T21:41:57.163Z,89.27
2019-05-23T21:44:24.099Z,89.35
2019-05-23T21:46:51.202Z,89.33
2019-05-23T21:49:18.456Z,89.24
2019-05-23T21:51:45.903Z,89.29
2019-05-23T21:54:13.323Z,89.18
2019-05-23T21:56:40.240Z,89.21
2019-05-23T21:59:07.265Z,89.13
2019-05-23T22:01:39.137Z,89.13
2019-05-23T22:04:09.407Z,89.30
2019-05-23T22:06:44.353Z,89.39
2019-05-23T22:09:13.550Z,89.44
2019-05-23T22:11:40.744Z,89.33
2019-05-23T22:14:07.835Z,89.10
2019-05-23T22:16:34.939Z,89.36
2019-05-23T22:19:03.388Z,89.31
2019-05-23T22:21:30.913Z,89.31
2019-05-23T22:23:57.976Z,89.48
2019-05-23T22:26:25.623Z,89.59
2019-05-23T22:28:52.782Z,89.59
2019-05-23T22:31:20.596Z,89.61
2019-05-23T22:34:06.182Z,89.68
2019-05-23T22:36:33.656Z,89.68
2019-05-23T22:39:01.195Z,89.95
2019-05-23T22:41:28.815Z,89.88
2019-05-23T22:43:55.825Z,89.97
2019-05-23T22:46:22.928Z,89.96
2019-05-23T22:48:50.077Z,89.94
2019-05-23T22:51:17.198Z,90.09
2019-05-23T22:53:44.226Z,90.09
2019-05-23T22:56:11.195Z,90.01
2019-05-23T22:58:38.690Z,90.10
2019-05-23T23:01:06.142Z,90.06
2019-05-23T23:03:34.013Z,90.07
2019-05-23T23:06:01.219Z,90.15
2019-05-23T23:08:29.273Z,90.06
2019-05-23T23:10:56.697Z,90.24
2019-05-23T23:13:37.722Z,90.21
2019-05-23T23:15:53.031Z,90.34
2019-05-23T23:18:20.418Z,90.32
2019-05-23T23:20:47.457Z,90.28
2019-05-23T23:23:14.630Z,90.01
2019-05-23T23:25:41.975Z,89.95
2019-05-23T23:28:09.184Z,89.88
2019-05-23T23:30:41.128Z,90.02
2019-05-23T23:33:08.240Z,90.11
2019-05-23T23:35:35.939Z,90.16
2019-05-23T23:38:03.677Z,90.11
2019-05-23T23:40:32.224Z,90.07
2019-05-23T23:42:59.269Z,90.03
2019-05-23T23:45:44.955Z,90.22
2019-05-23T23:48:30.750Z,90.15
2019-05-23T23:51:16.859Z,90.23
2019-05-23T23:54:02.406Z,89.97
2019-05-23T23:56:47.963Z,89.98
2019-05-23T23:59:15.189Z,90.04
